sensor_id;sensor_type;location;lat;lon;timestamp;temperature;humidity
70830;SHT30;58451;51.550;7.208;2023-06-05T00:00:24;14.78;62.20
70830;SHT30;58451;51.550;7.208;2023-06-05T00:01:56;14.75;62.55
70830;SHT30;58451;51.550;7.208;2023-06-05T00:03:28;14.73;63.03
70830;SHT30;58451;51.550;7.208;2023-06-05T00:05:01;14.70;62.60
70830;SHT30;58451;51.550;7.208;2023-06-05T00:06:34;14.67;62.40
70830;SHT30;58451;51.550;7.208;2023-06-05T00:08:08;14.65;62.48
70830;SHT30;58451;51.550;7.208;2023-06-05T00:09:40;14.61;62.63
70830;SHT30;58451;51.550;7.208;2023-06-05T00:11:12;14.59;62.87
70830;SHT30;58451;51.550;7.208;2023-06-05T00:12:44;14.56;63.05
70830;SHT30;58451;51.550;7.208;2023-06-05T00:14:16;14.53;62.90
70830;SHT30;58451;51.550;7.208;2023-06-05T00:15:48;14.49;63.00
70830;SHT30;58451;51.550;7.208;2023-06-05T00:17:22;14.46;63.03
70830;SHT30;58451;51.550;7.208;2023-06-05T00:18:54;14.44;64.12
70830;SHT30;58451;51.550;7.208;2023-06-05T00:20:26;14.42;63.57
70830;SHT30;58451;51.550;7.208;2023-06-05T00:21:58;14.41;63.25
70830;SHT30;58451;51.550;7.208;2023-06-05T00:23:29;14.39;63.95
70830;SHT30;58451;51.550;7.208;2023-06-05T00:25:02;14.36;63.82
70830;SHT30;58451;51.550;7.208;2023-06-05T00:26:37;14.36;63.85
70830;SHT30;58451;51.550;7.208;2023-06-05T00:28:09;14.31;63.90
70830;SHT30;58451;51.550;7.208;2023-06-05T00:29:41;14.30;64.02
70830;SHT30;58451;51.550;7.208;2023-06-05T00:31:13;14.27;63.87
70830;SHT30;58451;51.550;7.208;2023-06-05T00:32:45;14.26;63.88
70830;SHT30;58451;51.550;7.208;2023-06-05T00:34:18;14.23;63.77
70830;SHT30;58451;51.550;7.208;2023-06-05T00:35:50;14.20;64.28
70830;SHT30;58451;51.550;7.208;2023-06-05T00:37:22;14.19;64.02
70830;SHT30;58451;51.550;7.208;2023-06-05T00:38:54;14.16;63.83
70830;SHT30;58451;51.550;7.208;2023-06-05T00:40:26;14.14;63.68
70830;SHT30;58451;51.550;7.208;2023-06-05T00:41:58;14.11;63.72
70830;SHT30;58451;51.550;7.208;2023-06-05T00:43:30;14.09;63.65
70830;SHT30;58451;51.550;7.208;2023-06-05T00:45:02;14.06;63.75
70830;SHT30;58451;51.550;7.208;2023-06-05T00:46:35;14.03;64.03
70830;SHT30;58451;51.550;7.208;2023-06-05T00:48:09;13.99;64.33
70830;SHT30;58451;51.550;7.208;2023-06-05T00:49:42;13.95;64.45
70830;SHT30;58451;51.550;7.208;2023-06-05T00:51:14;13.92;64.57
70830;SHT30;58451;51.550;7.208;2023-06-05T00:52:48;13.88;64.55
70830;SHT30;58451;51.550;7.208;2023-06-05T00:54:22;13.85;64.60
70830;SHT30;58451;51.550;7.208;2023-06-05T00:55:54;13.80;64.65
70830;SHT30;58451;51.550;7.208;2023-06-05T00:57:26;13.77;64.78
70830;SHT30;58451;51.550;7.208;2023-06-05T00:58:59;13.74;64.82
70830;SHT30;58451;51.550;7.208;2023-06-05T01:00:31;13.70;64.95
70830;SHT30;58451;51.550;7.208;2023-06-05T01:02:04;13.66;65.13
70830;SHT30;58451;51.550;7.208;2023-06-05T01:03:36;13.63;65.30
70830;SHT30;58451;51.550;7.208;2023-06-05T01:05:08;13.60;65.33
70830;SHT30;58451;51.550;7.208;2023-06-05T01:06:40;13.56;65.58
70830;SHT30;58451;51.550;7.208;2023-06-05T01:08:12;13.54;65.82
70830;SHT30;58451;51.550;7.208;2023-06-05T01:09:45;13.51;65.77
70830;SHT30;58451;51.550;7.208;2023-06-05T01:11:22;13.48;65.85
70830;SHT30;58451;51.550;7.208;2023-06-05T01:13:15;13.44;65.72
70830;SHT30;58451;51.550;7.208;2023-06-05T01:14:57;13.40;65.65
70830;SHT30;58451;51.550;7.208;2023-06-05T01:16:32;13.37;65.82
70830;SHT30;58451;51.550;7.208;2023-06-05T01:18:06;13.33;66.18
70830;SHT30;58451;51.550;7.208;2023-06-05T01:19:40;13.29;66.22
70830;SHT30;58451;51.550;7.208;2023-06-05T01:21:14;13.26;66.47
70830;SHT30;58451;51.550;7.208;2023-06-05T01:22:48;13.23;66.50
70830;SHT30;58451;51.550;7.208;2023-06-05T01:24:24;13.18;66.37
70830;SHT30;58451;51.550;7.208;2023-06-05T01:25:59;13.15;66.50
70830;SHT30;58451;51.550;7.208;2023-06-05T01:27:41;13.11;66.48
70830;SHT30;58451;51.550;7.208;2023-06-05T01:29:28;13.07;66.48
70830;SHT30;58451;51.550;7.208;2023-06-05T01:31:09;13.03;66.55
70830;SHT30;58451;51.550;7.208;2023-06-05T01:34:26;12.95;66.58
70830;SHT30;58451;51.550;7.208;2023-06-05T01:36:01;12.91;66.90
70830;SHT30;58451;51.550;7.208;2023-06-05T01:37:38;12.89;66.83
70830;SHT30;58451;51.550;7.208;2023-06-05T01:39:17;12.85;66.75
70830;SHT30;58451;51.550;7.208;2023-06-05T01:40:51;12.81;66.75
70830;SHT30;58451;51.550;7.208;2023-06-05T01:42:23;12.78;66.68
70830;SHT30;58451;51.550;7.208;2023-06-05T01:43:57;12.77;66.82
70830;SHT30;58451;51.550;7.208;2023-06-05T01:45:31;12.72;67.08
70830;SHT30;58451;51.550;7.208;2023-06-05T01:47:03;12.70;66.92
70830;SHT30;58451;51.550;7.208;2023-06-05T01:48:37;12.68;66.85
70830;SHT30;58451;51.550;7.208;2023-06-05T01:50:11;12.65;66.97
70830;SHT30;58451;51.550;7.208;2023-06-05T01:51:46;12.61;67.03
70830;SHT30;58451;51.550;7.208;2023-06-05T01:53:18;12.60;67.18
70830;SHT30;58451;51.550;7.208;2023-06-05T01:54:51;12.56;67.12
70830;SHT30;58451;51.550;7.208;2023-06-05T01:56:24;12.52;67.00
70830;SHT30;58451;51.550;7.208;2023-06-05T01:57:56;12.51;67.02
70830;SHT30;58451;51.550;7.208;2023-06-05T01:59:28;12.47;66.92
70830;SHT30;58451;51.550;7.208;2023-06-05T02:01:00;12.47;66.87
70830;SHT30;58451;51.550;7.208;2023-06-05T02:02:32;12.43;67.08
70830;SHT30;58451;51.550;7.208;2023-06-05T02:04:04;12.39;67.93
70830;SHT30;58451;51.550;7.208;2023-06-05T02:05:37;12.37;67.50
70830;SHT30;58451;51.550;7.208;2023-06-05T02:07:09;12.34;67.37
70830;SHT30;58451;51.550;7.208;2023-06-05T02:08:41;12.31;67.35
70830;SHT30;58451;51.550;7.208;2023-06-05T02:10:13;12.28;67.43
70830;SHT30;58451;51.550;7.208;2023-06-05T02:11:45;12.25;67.62
70830;SHT30;58451;51.550;7.208;2023-06-05T02:13:18;12.22;67.42
70830;SHT30;58451;51.550;7.208;2023-06-05T02:14:51;12.19;67.45
70830;SHT30;58451;51.550;7.208;2023-06-05T02:16:22;12.17;67.52
70830;SHT30;58451;51.550;7.208;2023-06-05T02:17:54;12.14;67.53
70830;SHT30;58451;51.550;7.208;2023-06-05T02:19:28;12.12;67.57
70830;SHT30;58451;51.550;7.208;2023-06-05T02:21:00;12.10;68.03
70830;SHT30;58451;51.550;7.208;2023-06-05T02:22:32;12.07;69.45
70830;SHT30;58451;51.550;7.208;2023-06-05T02:24:04;12.03;68.70
70830;SHT30;58451;51.550;7.208;2023-06-05T02:25:36;12.02;68.73
70830;SHT30;58451;51.550;7.208;2023-06-05T02:27:08;11.98;68.33
70830;SHT30;58451;51.550;7.208;2023-06-05T02:28:41;11.96;68.20
70830;SHT30;58451;51.550;7.208;2023-06-05T02:30:13;11.92;68.40
70830;SHT30;58451;51.550;7.208;2023-06-05T02:31:45;11.90;68.47
70830;SHT30;58451;51.550;7.208;2023-06-05T02:33:17;11.88;68.43
70830;SHT30;58451;51.550;7.208;2023-06-05T02:34:49;11.85;68.47
70830;SHT30;58451;51.550;7.208;2023-06-05T02:36:22;11.83;68.55
70830;SHT30;58451;51.550;7.208;2023-06-05T02:37:56;11.80;68.43
70830;SHT30;58451;51.550;7.208;2023-06-05T02:39:29;11.78;68.43
70830;SHT30;58451;51.550;7.208;2023-06-05T02:41:03;11.75;68.55
70830;SHT30;58451;51.550;7.208;2023-06-05T02:42:35;11.72;68.47
70830;SHT30;58451;51.550;7.208;2023-06-05T02:44:07;11.70;68.65
70830;SHT30;58451;51.550;7.208;2023-06-05T02:45:39;11.66;68.87
70830;SHT30;58451;51.550;7.208;2023-06-05T02:47:12;11.64;69.08
70830;SHT30;58451;51.550;7.208;2023-06-05T02:48:44;11.62;69.05
70830;SHT30;58451;51.550;7.208;2023-06-05T02:50:17;11.60;69.08
70830;SHT30;58451;51.550;7.208;2023-06-05T02:51:52;11.56;69.17
70830;SHT30;58451;51.550;7.208;2023-06-05T02:53:24;11.54;69.33
70830;SHT30;58451;51.550;7.208;2023-06-05T02:54:56;11.52;69.52
70830;SHT30;58451;51.550;7.208;2023-06-05T03:10:01;11.27;69.53
70830;SHT30;58451;51.550;7.208;2023-06-05T03:11:33;11.26;69.87
70830;SHT30;58451;51.550;7.208;2023-06-05T03:13:05;11.24;69.77
70830;SHT30;58451;51.550;7.208;2023-06-05T03:14:39;11.23;70.12
70830;SHT30;58451;51.550;7.208;2023-06-05T03:16:11;11.22;69.98
70830;SHT30;58451;51.550;7.208;2023-06-05T03:17:48;11.22;69.90
70830;SHT30;58451;51.550;7.208;2023-06-05T03:19:20;11.21;70.02
70830;SHT30;58451;51.550;7.208;2023-06-05T03:20:52;11.18;70.13
70830;SHT30;58451;51.550;7.208;2023-06-05T03:22:28;11.18;70.18
70830;SHT30;58451;51.550;7.208;2023-06-05T03:24:00;11.18;70.10
70830;SHT30;58451;51.550;7.208;2023-06-05T03:25:33;11.16;70.20
70830;SHT30;58451;51.550;7.208;2023-06-05T03:27:05;11.14;70.35
70830;SHT30;58451;51.550;7.208;2023-06-05T03:28:37;11.13;70.27
70830;SHT30;58451;51.550;7.208;2023-06-05T03:30:11;11.12;70.33
70830;SHT30;58451;51.550;7.208;2023-06-05T03:31:48;11.12;70.32
70830;SHT30;58451;51.550;7.208;2023-06-05T03:33:21;11.11;70.32
70830;SHT30;58451;51.550;7.208;2023-06-05T03:34:53;11.11;70.47
70830;SHT30;58451;51.550;7.208;2023-06-05T03:36:26;11.11;70.43
70830;SHT30;58451;51.550;7.208;2023-06-05T03:37:59;11.10;70.47
70830;SHT30;58451;51.550;7.208;2023-06-05T03:39:32;11.11;70.52
70830;SHT30;58451;51.550;7.208;2023-06-05T03:41:04;11.11;70.55
70830;SHT30;58451;51.550;7.208;2023-06-05T03:42:36;11.13;70.55
70830;SHT30;58451;51.550;7.208;2023-06-05T03:44:08;11.11;70.72
70830;SHT30;58451;51.550;7.208;2023-06-05T03:45:40;11.10;70.63
70830;SHT30;58451;51.550;7.208;2023-06-05T03:47:13;11.12;70.63
70830;SHT30;58451;51.550;7.208;2023-06-05T03:48:46;11.13;70.60
70830;SHT30;58451;51.550;7.208;2023-06-05T03:50:30;11.13;70.55
70830;SHT30;58451;51.550;7.208;2023-06-05T03:52:05;11.14;70.53
70830;SHT30;58451;51.550;7.208;2023-06-05T03:53:40;11.15;70.97
70830;SHT30;58451;51.550;7.208;2023-06-05T03:55:14;11.16;70.97
70830;SHT30;58451;51.550;7.208;2023-06-05T03:56:47;11.16;70.72
70830;SHT30;58451;51.550;7.208;2023-06-05T03:58:21;11.18;70.63
70830;SHT30;58451;51.550;7.208;2023-06-05T03:59:56;11.19;70.60
70830;SHT30;58451;51.550;7.208;2023-06-05T04:01:27;11.19;70.65
70830;SHT30;58451;51.550;7.208;2023-06-05T04:02:59;11.22;70.62
70830;SHT30;58451;51.550;7.208;2023-06-05T04:04:32;11.24;70.67
70830;SHT30;58451;51.550;7.208;2023-06-05T04:06:05;11.25;70.78
70830;SHT30;58451;51.550;7.208;2023-06-05T04:07:38;11.28;70.72
70830;SHT30;58451;51.550;7.208;2023-06-05T04:09:10;11.30;70.63
70830;SHT30;58451;51.550;7.208;2023-06-05T04:10:45;11.33;70.60
70830;SHT30;58451;51.550;7.208;2023-06-05T04:12:17;11.35;70.57
70830;SHT30;58451;51.550;7.208;2023-06-05T04:13:51;11.38;70.62
70830;SHT30;58451;51.550;7.208;2023-06-05T04:15:27;11.40;70.55
70830;SHT30;58451;51.550;7.208;2023-06-05T04:17:00;11.43;70.58
70830;SHT30;58451;51.550;7.208;2023-06-05T04:18:32;11.45;70.60
70830;SHT30;58451;51.550;7.208;2023-06-05T04:20:05;11.47;70.65
70830;SHT30;58451;51.550;7.208;2023-06-05T04:21:45;11.50;70.98
70830;SHT30;58451;51.550;7.208;2023-06-05T04:23:17;11.51;70.98
70830;SHT30;58451;51.550;7.208;2023-06-05T04:24:49;11.53;71.25
70830;SHT30;58451;51.550;7.208;2023-06-05T04:26:21;11.56;71.08
70830;SHT30;58451;51.550;7.208;2023-06-05T04:27:55;11.59;70.98
70830;SHT30;58451;51.550;7.208;2023-06-05T04:29:28;11.62;71.03
70830;SHT30;58451;51.550;7.208;2023-06-05T04:31:03;11.63;71.32
70830;SHT30;58451;51.550;7.208;2023-06-05T04:32:36;11.64;71.32
70830;SHT30;58451;51.550;7.208;2023-06-05T04:34:10;11.66;71.33
70830;SHT30;58451;51.550;7.208;2023-06-05T04:35:43;11.69;71.43
70830;SHT30;58451;51.550;7.208;2023-06-05T04:37:15;11.71;71.40
70830;SHT30;58451;51.550;7.208;2023-06-05T04:38:47;11.72;71.45
70830;SHT30;58451;51.550;7.208;2023-06-05T04:40:19;11.74;71.40
70830;SHT30;58451;51.550;7.208;2023-06-05T04:41:52;11.77;71.50
70830;SHT30;58451;51.550;7.208;2023-06-05T04:43:44;11.80;71.30
70830;SHT30;58451;51.550;7.208;2023-06-05T04:45:16;11.82;71.73
70830;SHT30;58451;51.550;7.208;2023-06-05T04:46:50;11.85;71.57
70830;SHT30;58451;51.550;7.208;2023-06-05T04:48:23;11.88;71.43
70830;SHT30;58451;51.550;7.208;2023-06-05T04:49:57;11.90;71.37
70830;SHT30;58451;51.550;7.208;2023-06-05T04:51:32;11.96;71.48
70830;SHT30;58451;51.550;7.208;2023-06-05T04:53:05;11.99;71.50
70830;SHT30;58451;51.550;7.208;2023-06-05T04:54:37;12.01;71.35
70830;SHT30;58451;51.550;7.208;2023-06-05T04:56:09;12.05;71.32
70830;SHT30;58451;51.550;7.208;2023-06-05T04:57:41;12.10;71.20
70830;SHT30;58451;51.550;7.208;2023-06-05T04:59:12;12.14;71.13
70830;SHT30;58451;51.550;7.208;2023-06-05T05:00:44;12.20;70.98
70830;SHT30;58451;51.550;7.208;2023-06-05T05:02:16;12.25;70.83
70830;SHT30;58451;51.550;7.208;2023-06-05T05:03:48;12.32;70.73
70830;SHT30;58451;51.550;7.208;2023-06-05T05:05:20;12.39;70.60
70830;SHT30;58451;51.550;7.208;2023-06-05T05:06:53;12.44;70.53
70830;SHT30;58451;51.550;7.208;2023-06-05T05:08:25;12.47;70.45
70830;SHT30;58451;51.550;7.208;2023-06-05T05:09:58;12.51;70.38
70830;SHT30;58451;51.550;7.208;2023-06-05T05:11:31;12.56;70.33
70830;SHT30;58451;51.550;7.208;2023-06-05T05:13:03;12.61;70.17
70830;SHT30;58451;51.550;7.208;2023-06-05T05:14:35;12.69;70.15
70830;SHT30;58451;51.550;7.208;2023-06-05T05:16:07;12.75;70.10
70830;SHT30;58451;51.550;7.208;2023-06-05T05:17:40;12.77;70.12
70830;SHT30;58451;51.550;7.208;2023-06-05T05:19:12;12.80;70.07
70830;SHT30;58451;51.550;7.208;2023-06-05T05:20:44;12.82;69.95
70830;SHT30;58451;51.550;7.208;2023-06-05T05:22:16;12.86;69.87
70830;SHT30;58451;51.550;7.208;2023-06-05T05:23:48;12.92;69.83
70830;SHT30;58451;51.550;7.208;2023-06-05T05:25:20;12.97;69.83
70830;SHT30;58451;51.550;7.208;2023-06-05T05:26:52;13.02;69.72
70830;SHT30;58451;51.550;7.208;2023-06-05T05:28:24;13.06;69.70
70830;SHT30;58451;51.550;7.208;2023-06-05T05:29:56;13.12;69.52
70830;SHT30;58451;51.550;7.208;2023-06-05T05:31:28;13.19;69.40
70830;SHT30;58451;51.550;7.208;2023-06-05T05:33:01;13.27;69.32
70830;SHT30;58451;51.550;7.208;2023-06-05T05:34:33;13.34;69.18
70830;SHT30;58451;51.550;7.208;2023-06-05T05:36:05;13.41;69.10
70830;SHT30;58451;51.550;7.208;2023-06-05T05:37:37;13.49;69.00
70830;SHT30;58451;51.550;7.208;2023-06-05T05:39:09;13.54;69.20
70830;SHT30;58451;51.550;7.208;2023-06-05T05:40:41;13.64;68.83
70830;SHT30;58451;51.550;7.208;2023-06-05T05:42:14;13.70;68.68
70830;SHT30;58451;51.550;7.208;2023-06-05T05:43:48;13.81;68.52
70830;SHT30;58451;51.550;7.208;2023-06-05T05:45:20;13.87;68.33
70830;SHT30;58451;51.550;7.208;2023-06-05T05:46:52;13.96;68.13
70830;SHT30;58451;51.550;7.208;2023-06-05T05:48:24;14.04;67.93
70830;SHT30;58451;51.550;7.208;2023-06-05T05:49:55;14.11;67.73
70830;SHT30;58451;51.550;7.208;2023-06-05T05:51:27;14.17;67.57
70830;SHT30;58451;51.550;7.208;2023-06-05T05:53:00;14.24;67.43
70830;SHT30;58451;51.550;7.208;2023-06-05T05:54:32;14.29;67.25
70830;SHT30;58451;51.550;7.208;2023-06-05T05:56:04;14.35;67.07
70830;SHT30;58451;51.550;7.208;2023-06-05T05:57:36;14.42;66.92
70830;SHT30;58451;51.550;7.208;2023-06-05T05:59:08;14.48;66.63
70830;SHT30;58451;51.550;7.208;2023-06-05T06:00:40;14.51;66.60
70830;SHT30;58451;51.550;7.208;2023-06-05T06:02:12;14.59;66.52
70830;SHT30;58451;51.550;7.208;2023-06-05T06:03:44;14.65;66.27
70830;SHT30;58451;51.550;7.208;2023-06-05T06:05:16;14.69;66.15
70830;SHT30;58451;51.550;7.208;2023-06-05T06:06:49;14.73;65.98
70830;SHT30;58451;51.550;7.208;2023-06-05T06:08:24;14.73;65.77
70830;SHT30;58451;51.550;7.208;2023-06-05T06:09:56;14.71;65.68
70830;SHT30;58451;51.550;7.208;2023-06-05T06:11:28;14.71;65.62
70830;SHT30;58451;51.550;7.208;2023-06-05T06:13:00;14.70;65.45
70830;SHT30;58451;51.550;7.208;2023-06-05T06:14:33;14.66;65.35
70830;SHT30;58451;51.550;7.208;2023-06-05T06:16:06;14.65;65.48
70830;SHT30;58451;51.550;7.208;2023-06-05T06:17:38;14.68;65.43
70830;SHT30;58451;51.550;7.208;2023-06-05T06:19:09;14.67;65.35
70830;SHT30;58451;51.550;7.208;2023-06-05T06:20:45;14.68;65.33
70830;SHT30;58451;51.550;7.208;2023-06-05T06:22:18;14.66;65.23
70830;SHT30;58451;51.550;7.208;2023-06-05T06:23:50;14.64;65.32
70830;SHT30;58451;51.550;7.208;2023-06-05T06:25:22;14.66;65.35
70830;SHT30;58451;51.550;7.208;2023-06-05T06:26:56;14.69;65.52
70830;SHT30;58451;51.550;7.208;2023-06-05T06:28:29;14.74;65.40
70830;SHT30;58451;51.550;7.208;2023-06-05T06:30:01;14.81;65.27
70830;SHT30;58451;51.550;7.208;2023-06-05T06:31:34;14.83;65.22
70830;SHT30;58451;51.550;7.208;2023-06-05T06:33:07;14.91;65.17
70830;SHT30;58451;51.550;7.208;2023-06-05T06:34:39;14.96;65.05
70830;SHT30;58451;51.550;7.208;2023-06-05T06:36:13;15.02;64.92
70830;SHT30;58451;51.550;7.208;2023-06-05T06:37:47;15.04;64.80
70830;SHT30;58451;51.550;7.208;2023-06-05T06:39:19;15.11;64.77
70830;SHT30;58451;51.550;7.208;2023-06-05T06:40:51;15.17;64.68
70830;SHT30;58451;51.550;7.208;2023-06-05T06:42:23;15.25;64.68
70830;SHT30;58451;51.550;7.208;2023-06-05T06:44:01;15.38;64.52
70830;SHT30;58451;51.550;7.208;2023-06-05T06:45:35;15.46;64.40
70830;SHT30;58451;51.550;7.208;2023-06-05T06:47:07;15.56;64.12
70830;SHT30;58451;51.550;7.208;2023-06-05T06:48:39;15.62;63.92
70830;SHT30;58451;51.550;7.208;2023-06-05T06:50:12;15.66;63.72
70830;SHT30;58451;51.550;7.208;2023-06-05T06:51:45;15.70;63.58
70830;SHT30;58451;51.550;7.208;2023-06-05T06:53:18;15.75;63.40
70830;SHT30;58451;51.550;7.208;2023-06-05T06:54:50;15.77;63.47
70830;SHT30;58451;51.550;7.208;2023-06-05T06:56:22;15.82;63.32
70830;SHT30;58451;51.550;7.208;2023-06-05T06:57:54;15.87;63.30
70830;SHT30;58451;51.550;7.208;2023-06-05T06:59:26;15.93;63.15
70830;SHT30;58451;51.550;7.208;2023-06-05T07:00:58;15.96;63.00
70830;SHT30;58451;51.550;7.208;2023-06-05T07:02:31;15.98;62.97
70830;SHT30;58451;51.550;7.208;2023-06-05T07:04:03;16.05;62.85
70830;SHT30;58451;51.550;7.208;2023-06-05T07:05:36;16.06;62.55
70830;SHT30;58451;51.550;7.208;2023-06-05T07:07:09;16.03;62.62
70830;SHT30;58451;51.550;7.208;2023-06-05T07:08:43;16.05;62.63
70830;SHT30;58451;51.550;7.208;2023-06-05T07:10:16;16.15;62.68
70830;SHT30;58451;51.550;7.208;2023-06-05T07:11:48;16.21;62.53
70830;SHT30;58451;51.550;7.208;2023-06-05T07:13:20;16.24;62.52
70830;SHT30;58451;51.550;7.208;2023-06-05T07:14:52;16.31;62.50
70830;SHT30;58451;51.550;7.208;2023-06-05T07:16:25;16.40;62.42
70830;SHT30;58451;51.550;7.208;2023-06-05T07:17:57;16.49;62.17
70830;SHT30;58451;51.550;7.208;2023-06-05T07:19:29;16.53;62.08
70830;SHT30;58451;51.550;7.208;2023-06-05T07:21:03;16.60;62.07
70830;SHT30;58451;51.550;7.208;2023-06-05T07:22:35;16.66;62.02
70830;SHT30;58451;51.550;7.208;2023-06-05T07:24:07;16.75;62.02
70830;SHT30;58451;51.550;7.208;2023-06-05T07:25:39;16.86;61.85
70830;SHT30;58451;51.550;7.208;2023-06-05T07:27:11;16.93;61.42
70830;SHT30;58451;51.550;7.208;2023-06-05T07:28:44;16.98;61.23
70830;SHT30;58451;51.550;7.208;2023-06-05T07:30:17;16.99;61.18
70830;SHT30;58451;51.550;7.208;2023-06-05T07:31:50;17.06;61.23
70830;SHT30;58451;51.550;7.208;2023-06-05T07:33:24;17.14;60.92
70830;SHT30;58451;51.550;7.208;2023-06-05T07:35:01;17.18;60.80
70830;SHT30;58451;51.550;7.208;2023-06-05T07:36:33;17.25;60.65
70830;SHT30;58451;51.550;7.208;2023-06-05T07:38:05;17.28;60.08
70830;SHT30;58451;51.550;7.208;2023-06-05T07:39:37;17.28;60.10
70830;SHT30;58451;51.550;7.208;2023-06-05T07:41:10;17.31;60.23
70830;SHT30;58451;51.550;7.208;2023-06-05T07:42:42;17.36;60.05
70830;SHT30;58451;51.550;7.208;2023-06-05T07:44:15;17.43;60.13
70830;SHT30;58451;51.550;7.208;2023-06-05T07:45:49;17.49;59.77
70830;SHT30;58451;51.550;7.208;2023-06-05T07:47:21;17.52;59.77
70830;SHT30;58451;51.550;7.208;2023-06-05T07:48:53;17.58;59.83
70830;SHT30;58451;51.550;7.208;2023-06-05T07:50:25;17.68;59.88
70830;SHT30;58451;51.550;7.208;2023-06-05T07:51:59;17.80;59.52
70830;SHT30;58451;51.550;7.208;2023-06-05T07:53:32;17.89;59.43
70830;SHT30;58451;51.550;7.208;2023-06-05T07:55:04;17.98;59.23
70830;SHT30;58451;51.550;7.208;2023-06-05T07:56:37;18.04;58.75
70830;SHT30;58451;51.550;7.208;2023-06-05T07:58:10;18.12;58.42
70830;SHT30;58451;51.550;7.208;2023-06-05T07:59:42;18.18;58.20
70830;SHT30;58451;51.550;7.208;2023-06-05T08:01:14;18.22;58.20
70830;SHT30;58451;51.550;7.208;2023-06-05T08:02:47;18.24;58.25
70830;SHT30;58451;51.550;7.208;2023-06-05T08:04:20;18.32;58.13
70830;SHT30;58451;51.550;7.208;2023-06-05T08:05:56;18.38;57.80
70830;SHT30;58451;51.550;7.208;2023-06-05T08:07:28;18.44;57.82
70830;SHT30;58451;51.550;7.208;2023-06-05T08:09:00;18.52;57.70
70830;SHT30;58451;51.550;7.208;2023-06-05T08:10:33;18.59;57.28
70830;SHT30;58451;51.550;7.208;2023-06-05T08:12:05;18.65;56.72
70830;SHT30;58451;51.550;7.208;2023-06-05T08:13:37;18.65;56.40
70830;SHT30;58451;51.550;7.208;2023-06-05T08:15:10;18.68;56.67
70830;SHT30;58451;51.550;7.208;2023-06-05T08:16:41;18.76;56.70
70830;SHT30;58451;51.550;7.208;2023-06-05T08:18:14;18.84;55.77
70830;SHT30;58451;51.550;7.208;2023-06-05T08:19:47;18.88;55.80
70830;SHT30;58451;51.550;7.208;2023-06-05T08:21:19;18.92;55.73
70830;SHT30;58451;51.550;7.208;2023-06-05T08:22:51;19.02;55.78
70830;SHT30;58451;51.550;7.208;2023-06-05T08:24:23;19.08;55.53
70830;SHT30;58451;51.550;7.208;2023-06-05T08:25:55;19.14;55.45
70830;SHT30;58451;51.550;7.208;2023-06-05T08:27:27;19.18;55.35
70830;SHT30;58451;51.550;7.208;2023-06-05T08:28:59;19.18;55.35
70830;SHT30;58451;51.550;7.208;2023-06-05T08:30:31;19.20;55.63
70830;SHT30;58451;51.550;7.208;2023-06-05T08:32:03;19.29;55.50
70830;SHT30;58451;51.550;7.208;2023-06-05T08:33:36;19.33;55.35
70830;SHT30;58451;51.550;7.208;2023-06-05T08:35:12;19.38;54.67
70830;SHT30;58451;51.550;7.208;2023-06-05T08:36:43;19.38;54.78
70830;SHT30;58451;51.550;7.208;2023-06-05T08:38:16;19.44;54.78
70830;SHT30;58451;51.550;7.208;2023-06-05T08:39:47;19.50;54.92
70830;SHT30;58451;51.550;7.208;2023-06-05T08:41:20;19.55;54.65
70830;SHT30;58451;51.550;7.208;2023-06-05T08:42:52;19.61;54.75
70830;SHT30;58451;51.550;7.208;2023-06-05T08:44:24;19.63;54.37
70830;SHT30;58451;51.550;7.208;2023-06-05T08:45:56;19.72;54.33
70830;SHT30;58451;51.550;7.208;2023-06-05T08:47:29;19.75;54.30
70830;SHT30;58451;51.550;7.208;2023-06-05T08:49:06;19.77;54.32
70830;SHT30;58451;51.550;7.208;2023-06-05T08:50:42;19.82;54.12
70830;SHT30;58451;51.550;7.208;2023-06-05T08:52:15;19.85;53.77
70830;SHT30;58451;51.550;7.208;2023-06-05T08:53:51;19.88;53.60
70830;SHT30;58451;51.550;7.208;2023-06-05T08:55:34;19.92;53.18
70830;SHT30;58451;51.550;7.208;2023-06-05T08:57:06;19.96;53.10
70830;SHT30;58451;51.550;7.208;2023-06-05T08:58:39;20.05;53.28
70830;SHT30;58451;51.550;7.208;2023-06-05T09:00:13;20.15;53.42
70830;SHT30;58451;51.550;7.208;2023-06-05T09:01:48;20.26;52.72
70830;SHT30;58451;51.550;7.208;2023-06-05T09:03:21;20.27;52.10
70830;SHT30;58451;51.550;7.208;2023-06-05T09:04:53;20.27;52.03
70830;SHT30;58451;51.550;7.208;2023-06-05T09:06:24;20.29;52.43
70830;SHT30;58451;51.550;7.208;2023-06-05T09:07:57;20.41;52.20
70830;SHT30;58451;51.550;7.208;2023-06-05T09:09:30;20.49;52.20
70830;SHT30;58451;51.550;7.208;2023-06-05T09:11:21;20.57;51.93
70830;SHT30;58451;51.550;7.208;2023-06-05T09:12:59;20.62;51.87
70830;SHT30;58451;51.550;7.208;2023-06-05T09:14:34;20.67;51.33
70830;SHT30;58451;51.550;7.208;2023-06-05T09:16:07;20.69;51.37
70830;SHT30;58451;51.550;7.208;2023-06-05T09:17:39;20.76;51.58
70830;SHT30;58451;51.550;7.208;2023-06-05T09:19:11;20.87;51.17
70830;SHT30;58451;51.550;7.208;2023-06-05T09:20:45;20.94;50.93
70830;SHT30;58451;51.550;7.208;2023-06-05T09:22:20;20.97;50.98
70830;SHT30;58451;51.550;7.208;2023-06-05T09:25:48;21.14;51.10
70830;SHT30;58451;51.550;7.208;2023-06-05T09:27:20;21.23;50.47
70830;SHT30;58451;51.550;7.208;2023-06-05T09:28:55;21.28;49.85
70830;SHT30;58451;51.550;7.208;2023-06-05T09:30:28;21.34;50.15
70830;SHT30;58451;51.550;7.208;2023-06-05T09:32:01;21.42;49.57
70830;SHT30;58451;51.550;7.208;2023-06-05T09:33:37;21.52;49.45
70830;SHT30;58451;51.550;7.208;2023-06-05T09:35:09;21.58;48.95
70830;SHT30;58451;51.550;7.208;2023-06-05T09:36:48;21.59;48.43
70830;SHT30;58451;51.550;7.208;2023-06-05T09:38:26;21.58;48.18
70830;SHT30;58451;51.550;7.208;2023-06-05T09:39:58;21.57;48.52
70830;SHT30;58451;51.550;7.208;2023-06-05T09:41:30;21.61;48.25
70830;SHT30;58451;51.550;7.208;2023-06-05T09:43:20;21.65;48.22
70830;SHT30;58451;51.550;7.208;2023-06-05T09:44:59;21.71;48.37
70830;SHT30;58451;51.550;7.208;2023-06-05T09:46:32;21.79;48.12
70830;SHT30;58451;51.550;7.208;2023-06-05T09:48:13;21.86;48.13
70830;SHT30;58451;51.550;7.208;2023-06-05T09:49:46;21.93;47.55
70830;SHT30;58451;51.550;7.208;2023-06-05T09:51:19;21.97;47.40
70830;SHT30;58451;51.550;7.208;2023-06-05T09:52:52;22.02;47.27
70830;SHT30;58451;51.550;7.208;2023-06-05T09:54:28;22.05;47.00
70830;SHT30;58451;51.550;7.208;2023-06-05T09:56:02;22.09;46.22
70830;SHT30;58451;51.550;7.208;2023-06-05T09:57:35;22.13;46.23
70830;SHT30;58451;51.550;7.208;2023-06-05T09:59:09;22.19;46.95
70830;SHT30;58451;51.550;7.208;2023-06-05T10:00:51;22.34;46.78
70830;SHT30;58451;51.550;7.208;2023-06-05T10:02:24;22.44;45.98
70830;SHT30;58451;51.550;7.208;2023-06-05T10:04:08;22.46;46.13
70830;SHT30;58451;51.550;7.208;2023-06-05T10:05:43;22.56;45.63